createdAt,value
2017-09-29T00:00:02.877Z,22.90
2017-09-29T00:02:30.639Z,22.80
2017-09-29T00:04:58.262Z,22.80
2017-09-29T00:07:25.807Z,22.80
2017-09-29T00:09:53.357Z,22.90
2017-09-29T00:12:21.638Z,22.90
2017-09-29T00:14:49.162Z,22.90
2017-09-29T00:17:16.676Z,22.90
2017-09-29T00:19:44.220Z,22.90
2017-09-29T00:22:11.800Z,23.00
2017-09-29T00:24:39.313Z,22.90
2017-09-29T00:27:06.830Z,23.00
2017-09-29T00:29:34.332Z,23.00
2017-09-29T00:32:02.665Z,23.00
2017-09-29T00:34:30.231Z,22.90
2017-09-29T00:36:57.782Z,23.00
2017-09-29T00:39:25.298Z,23.00
2017-09-29T00:41:53.597Z,23.00
2017-09-29T00:44:21.106Z,23.00
2017-09-29T00:46:48.624Z,23.10
2017-09-29T00:49:16.132Z,23.00
2017-09-29T00:51:43.674Z,22.90
2017-09-29T00:54:11.230Z,22.90
2017-09-29T00:56:38.735Z,23.00
2017-09-29T00:59:07.051Z,23.00
2017-09-29T01:01:34.583Z,23.00
2017-09-29T01:04:02.169Z,23.10
2017-09-29T01:06:29.711Z,23.00
2017-09-29T01:08:57.221Z,23.10
2017-09-29T01:11:24.749Z,23.20
2017-09-29T01:13:52.286Z,23.10
2017-09-29T01:16:19.798Z,23.00
2017-09-29T01:18:47.320Z,22.90
2017-09-29T01:21:14.922Z,22.90
2017-09-29T01:23:42.473Z,22.90
2017-09-29T01:26:09.996Z,22.90
2017-09-29T01:28:37.513Z,23.10
2017-09-29T01:31:05.008Z,23.10
2017-09-29T01:33:33.337Z,23.10
2017-09-29T01:36:00.854Z,23.00
2017-09-29T01:38:28.394Z,23.10
2017-09-29T01:40:55.900Z,23.20
2017-09-29T01:43:23.438Z,23.20
2017-09-29T01:45:50.998Z,23.20
2017-09-29T01:48:18.560Z,23.20
2017-09-29T01:50:46.083Z,23.20
2017-09-29T01:53:14.397Z,23.30
2017-09-29T01:55:41.965Z,23.30
2017-09-29T01:58:09.524Z,23.30
2017-09-29T02:00:37.039Z,23.20
2017-09-29T02:03:05.354Z,23.20
2017-09-29T02:05:33.342Z,23.10
2017-09-29T02:08:00.886Z,23.20
2017-09-29T02:10:28.438Z,23.10
2017-09-29T02:12:55.965Z,23.10
2017-09-29T02:15:24.243Z,23.20
2017-09-29T02:17:51.790Z,23.20
2017-09-29T02:20:19.310Z,23.10
2017-09-29T02:22:46.843Z,23.10
2017-09-29T02:25:14.397Z,23.20
2017-09-29T02:27:41.942Z,23.20
2017-09-29T02:30:09.497Z,23.10
2017-09-29T02:32:37.034Z,23.00
2017-09-29T02:35:04.571Z,23.10
2017-09-29T02:37:32.067Z,23.10
2017-09-29T02:39:59.653Z,23.10
2017-09-29T02:42:27.154Z,23.10
2017-09-29T02:44:54.678Z,23.10
2017-09-29T02:47:22.186Z,23.10
2017-09-29T02:49:49.772Z,23.00
2017-09-29T02:52:18.045Z,23.00
2017-09-29T02:54:46.332Z,23.00
2017-09-29T02:57:16.182Z,23.00
2017-09-29T02:59:44.152Z,23.00
2017-09-29T03:02:12.930Z,23.00
2017-09-29T03:04:41.627Z,22.90
2017-09-29T03:07:09.153Z,22.90
2017-09-29T03:09:37.453Z,22.90
2017-09-29T03:12:05.002Z,22.90
2017-09-29T03:14:33.450Z,22.90
2017-09-29T03:17:01.758Z,22.90
2017-09-29T03:19:29.281Z,22.90
2017-09-29T03:21:56.787Z,22.90
2017-09-29T03:24:24.307Z,22.90
2017-09-29T03:26:52.582Z,22.90
2017-09-29T03:29:20.905Z,22.90
2017-09-29T03:31:48.429Z,22.80
2017-09-29T03:34:16.736Z,22.90
2017-09-29T03:36:44.238Z,22.90
2017-09-29T03:39:11.829Z,22.90
2017-09-29T03:41:40.140Z,23.00
2017-09-29T03:44:07.672Z,23.00
2017-09-29T03:46:35.994Z,22.90
2017-09-29T03:49:03.522Z,22.90
2017-09-29T03:51:34.239Z,22.80
2017-09-29T03:54:02.114Z,22.80
2017-09-29T03:56:30.835Z,22.80
2017-09-29T03:58:58.813Z,22.80
2017-09-29T04:01:26.339Z,22.80
2017-09-29T04:03:54.625Z,22.70
2017-09-29T04:06:22.150Z,22.60
2017-09-29T04:08:50.448Z,22.70
2017-09-29T04:11:18.008Z,22.70
2017-09-29T04:13:45.548Z,22.60
2017-09-29T04:16:13.895Z,22.50
2017-09-29T04:18:41.418Z,22.50
2017-09-29T04:21:08.946Z,22.50
2017-09-29T04:23:36.535Z,22.40
2017-09-29T04:26:04.070Z,22.40
2017-09-29T04:28:32.350Z,22.20
2017-09-29T04:31:00.674Z,22.10
2017-09-29T04:33:28.252Z,22.10
2017-09-29T04:35:55.774Z,21.80
2017-09-29T04:38:23.304Z,21.60
2017-09-29T04:40:51.628Z,21.90
2017-09-29T04:43:19.157Z,22.00
2017-09-29T04:45:47.463Z,21.80
2017-09-29T04:48:15.077Z,21.80
2017-09-29T04:50:42.646Z,22.00
2017-09-29T04:53:10.929Z,22.20
2017-09-29T04:55:38.524Z,22.20
2017-09-29T04:58:06.027Z,22.30
2017-09-29T05:00:34.348Z,22.50
2017-09-29T05:03:01.866Z,22.50
2017-09-29T05:05:29.394Z,22.60
2017-09-29T05:07:56.996Z,22.60
2017-09-29T05:10:25.293Z,22.50
2017-09-29T05:12:52.825Z,22.50
2017-09-29T05:15:21.120Z,22.50
2017-09-29T05:17:48.651Z,22.50
2017-09-29T05:20:16.993Z,22.50
2017-09-29T05:22:44.504Z,22.50
2017-09-29T05:25:12.041Z,22.60
2017-09-29T05:27:39.570Z,22.60
2017-09-29T05:30:07.094Z,22.70
2017-09-29T05:32:35.409Z,22.50
2017-09-29T05:35:02.942Z,22.40
2017-09-29T05:37:31.205Z,22.50
2017-09-29T05:39:59.505Z,22.50
2017-09-29T05:42:27.055Z,22.40
2017-09-29T05:44:54.629Z,22.40
2017-09-29T05:47:22.193Z,22.00
2017-09-29T05:49:49.735Z,22.10
2017-09-29T05:52:17.239Z,22.30
2017-09-29T05:54:44.763Z,22.40
2017-09-29T05:57:12.287Z,22.50
2017-09-29T05:59:40.573Z,22.40
2017-09-29T06:02:08.885Z,22.30
2017-09-29T06:04:36.382Z,22.30
2017-09-29T06:07:03.970Z,22.30
2017-09-29T06:09:32.257Z,22.40
2017-09-29T06:12:00.575Z,22.50
2017-09-29T06:14:28.141Z,22.50
2017-09-29T06:16:55.698Z,22.60
2017-09-29T06:19:23.214Z,22.60
2017-09-29T06:21:50.945Z,22.70
2017-09-29T06:24:18.498Z,22.60
2017-09-29T06:26:46.008Z,22.60
2017-09-29T06:29:14.300Z,22.80
2017-09-29T06:31:41.837Z,22.80
2017-09-29T06:34:09.362Z,22.90
2017-09-29T06:36:36.888Z,22.90
2017-09-29T06:39:04.386Z,22.90
2017-09-29T06:41:31.922Z,23.00
2017-09-29T06:43:59.472Z,23.10
2017-09-29T06:46:26.997Z,23.20
2017-09-29T06:48:54.498Z,23.30
2017-09-29T06:51:22.014Z,23.30
2017-09-29T06:53:49.578Z,23.30
2017-09-29T06:56:17.112Z,23.40
2017-09-29T06:58:45.393Z,23.30
2017-09-29T07:01:13.671Z,23.20
2017-09-29T07:03:41.944Z,23.00
2017-09-29T07:06:10.224Z,23.10
2017-09-29T07:08:38.508Z,23.10
2017-09-29T07:11:06.787Z,23.10
2017-09-29T07:13:34.317Z,23.10
2017-09-29T07:16:01.869Z,23.10
2017-09-29T07:18:29.366Z,23.00
2017-09-29T07:20:57.673Z,22.80
2017-09-29T07:23:25.202Z,22.80
2017-09-29T07:25:54.993Z,23.00
2017-09-29T07:28:24.246Z,23.00
2017-09-29T07:30:53.909Z,23.10
2017-09-29T07:33:22.217Z,22.70
2017-09-29T07:35:49.748Z,22.70
2017-09-29T07:38:18.022Z,23.20
2017-09-29T07:40:46.304Z,23.10
2017-09-29T07:43:14.638Z,23.20
2017-09-29T07:45:42.141Z,23.20
2017-09-29T07:48:10.452Z,23.50
2017-09-29T07:50:37.982Z,23.50
2017-09-29T07:53:06.284Z,23.60
2017-09-29T07:55:33.785Z,23.60
2017-09-29T07:58:01.327Z,23.40
2017-09-29T08:00:28.841Z,23.60
2017-09-29T08:02:57.144Z,23.80
2017-09-29T08:05:24.653Z,23.70
2017-09-29T08:07:52.188Z,24.00
2017-09-29T08:10:19.699Z,24.00
2017-09-29T08:12:47.266Z,23.90
2017-09-29T08:15:14.817Z,24.10
2017-09-29T08:17:42.373Z,24.00
2017-09-29T08:20:10.653Z,24.10
2017-09-29T08:22:38.189Z,24.00
2017-09-29T08:25:05.694Z,23.90
2017-09-29T08:27:33.833Z,24.10
2017-09-29T08:30:02.146Z,24.10
2017-09-29T08:32:30.971Z,24.10
2017-09-29T08:34:58.501Z,23.60
2017-09-29T08:37:26.367Z,24.00
2017-09-29T08:39:53.920Z,24.00
2017-09-29T08:42:21.448Z,24.30
2017-09-29T08:44:49.009Z,24.40
2017-09-29T08:47:17.590Z,24.30
2017-09-29T08:49:46.002Z,24.00
2017-09-29T08:52:13.950Z,24.00
2017-09-29T08:54:41.476Z,24.40
2017-09-29T08:57:09.037Z,25.70
2017-09-29T08:59:37.321Z,28.30
2017-09-29T09:02:04.880Z,28.20
2017-09-29T09:04:32.418Z,29.20
2017-09-29T09:06:59.962Z,30.10
2017-09-29T09:09:27.465Z,30.90
2017-09-29T09:11:54.970Z,31.00
2017-09-29T09:14:22.533Z,30.80
2017-09-29T09:16:50.069Z,30.70
2017-09-29T09:19:17.573Z,31.20
2017-09-29T09:21:45.092Z,32.00
2017-09-29T09:24:12.629Z,30.80
2017-09-29T09:26:40.893Z,29.90
2017-09-29T09:29:08.435Z,29.90
2017-09-29T09:31:35.965Z,30.90
2017-09-29T09:34:03.488Z,30.60
2017-09-29T09:36:31.767Z,31.50
2017-09-29T09:39:00.077Z,32.20
2017-09-29T09:41:27.610Z,32.20
2017-09-29T09:43:55.894Z,33.00
2017-09-29T09:46:23.433Z,33.00
2017-09-29T09:48:51.031Z,33.60
2017-09-29T09:51:18.547Z,33.70
2017-09-29T09:53:46.159Z,32.90
2017-09-29T09:56:13.672Z,33.30
2017-09-29T09:58:41.184Z,33.10
2017-09-29T10:01:08.705Z,34.00
2017-09-29T10:03:37.012Z,34.20
2017-09-29T10:06:04.610Z,34.20
2017-09-29T10:08:32.134Z,34.50
2017-09-29T10:10:59.673Z,35.20
2017-09-29T10:13:27.204Z,35.00
2017-09-29T10:15:55.498Z,36.10
2017-09-29T10:18:23.777Z,37.00
2017-09-29T10:20:52.054Z,37.10
2017-09-29T10:23:20.335Z,37.50
2017-09-29T10:25:48.632Z,37.80
2017-09-29T10:28:16.199Z,37.80
2017-09-29T10:30:43.804Z,37.00
2017-09-29T10:33:11.366Z,36.00
2017-09-29T10:35:38.884Z,35.70
2017-09-29T10:38:06.445Z,36.20
2017-09-29T10:40:33.946Z,36.90
2017-09-29T10:43:01.466Z,37.30
2017-09-29T10:45:29.000Z,37.20
2017-09-29T10:47:56.565Z,37.70
2017-09-29T10:50:24.101Z,37.30
2017-09-29T10:52:52.428Z,36.50
2017-09-29T10:55:19.966Z,36.50
2017-09-29T10:57:47.561Z,37.20
2017-09-29T11:00:15.110Z,38.30
2017-09-29T11:02:42.650Z,38.90
2017-09-29T11:05:10.236Z,39.00
2017-09-29T11:07:37.744Z,38.80
2017-09-29T11:10:06.034Z,39.10
2017-09-29T11:12:33.920Z,39.00
2017-09-29T11:15:02.741Z,38.20
2017-09-29T11:17:30.276Z,38.80
2017-09-29T11:19:57.846Z,38.50
2017-09-29T11:22:25.390Z,38.00
2017-09-29T11:24:52.916Z,37.80
2017-09-29T11:27:21.181Z,38.00
2017-09-29T11:29:49.460Z,37.80
2017-09-29T11:32:17.729Z,37.40
2017-09-29T11:34:45.245Z,37.40
2017-09-29T11:37:12.815Z,37.00
2017-09-29T11:39:41.204Z,36.60
2017-09-29T11:42:08.709Z,37.00
2017-09-29T11:44:37.057Z,35.90
2017-09-29T11:47:04.572Z,35.90
2017-09-29T11:49:32.127Z,35.60
2017-09-29T11:51:59.642Z,36.30
2017-09-29T11:54:27.243Z,37.20
2017-09-29T11:56:54.834Z,37.20
2017-09-29T11:59:22.360Z,37.90
2017-09-29T12:01:49.876Z,38.00
2017-09-29T12:04:17.418Z,37.70
2017-09-29T12:06:44.929Z,37.70
2017-09-29T12:09:13.205Z,38.10
2017-09-29T12:11:40.741Z,38.00
2017-09-29T12:14:08.280Z,37.70
2017-09-29T12:16:37.765Z,37.30
2017-09-29T12:19:05.470Z,36.80
2017-09-29T12:21:35.716Z,34.70
2017-09-29T12:24:04.936Z,34.60
2017-09-29T12:26:32.484Z,34.70
2017-09-29T12:29:00.017Z,35.10
2017-09-29T12:31:28.297Z,35.60
2017-09-29T12:33:56.622Z,36.20
2017-09-29T12:36:24.175Z,36.20
2017-09-29T12:38:51.702Z,35.70
2017-09-29T12:41:19.985Z,35.50
2017-09-29T12:43:48.309Z,35.50
2017-09-29T12:46:15.825Z,35.50
2017-09-29T12:48:44.158Z,36.20
2017-09-29T12:51:11.714Z,36.10
2017-09-29T12:53:39.225Z,35.80
2017-09-29T12:56:06.756Z,35.50
2017-09-29T12:58:34.259Z,35.30
2017-09-29T13:01:01.772Z,35.30
2017-09-29T13:03:29.286Z,35.50
2017-09-29T13:06:06.876Z,35.10
2017-09-29T13:08:34.402Z,34.60
2017-09-29T13:11:02.686Z,33.80
2017-09-29T13:13:31.403Z,34.00
2017-09-29T13:15:58.920Z,34.00
2017-09-29T13:18:27.204Z,33.60
2017-09-29T13:20:55.511Z,32.80
2017-09-29T13:23:23.035Z,32.80
2017-09-29T13:25:51.333Z,32.20
2017-09-29T13:28:18.879Z,32.20
2017-09-29T13:30:47.168Z,32.50
2017-09-29T13:33:14.723Z,32.50
2017-09-29T13:35:43.054Z,33.10
2017-09-29T13:38:10.588Z,33.00
2017-09-29T13:40:38.109Z,33.40
2017-09-29T13:43:06.382Z,33.10
2017-09-29T13:45:34.237Z,33.00
2017-09-29T13:48:01.763Z,33.20
2017-09-29T13:50:29.308Z,32.70
2017-09-29T13:52:56.800Z,32.30
2017-09-29T13:55:24.344Z,32.20
2017-09-29T13:57:51.848Z,32.40
2017-09-29T14:00:19.401Z,32.40
2017-09-29T14:02:47.733Z,32.40
2017-09-29T14:05:15.285Z,32.40
2017-09-29T14:07:42.801Z,32.30
2017-09-29T14:10:10.379Z,32.30
2017-09-29T14:12:38.652Z,31.90
2017-09-29T14:15:06.974Z,32.10
2017-09-29T14:17:34.496Z,32.10
2017-09-29T14:20:02.811Z,32.30
2017-09-29T14:22:30.373Z,32.30
2017-09-29T14:24:57.890Z,32.00
2017-09-29T14:27:25.402Z,31.40
2017-09-29T14:29:52.931Z,30.90
2017-09-29T14:32:20.440Z,30.40
2017-09-29T14:34:47.963Z,30.20
2017-09-29T14:37:15.490Z,30.30
2017-09-29T14:39:43.052Z,30.30
2017-09-29T14:42:10.593Z,30.10
2017-09-29T14:44:38.869Z,30.10
2017-09-29T14:47:07.162Z,29.80
2017-09-29T14:49:34.700Z,29.80
2017-09-29T14:52:03.002Z,29.40
2017-09-29T14:54:30.527Z,29.40
2017-09-29T14:56:58.074Z,29.30
2017-09-29T14:59:25.693Z,29.50
2017-09-29T15:01:54.338Z,29.80
2017-09-29T15:04:21.861Z,30.20
2017-09-29T15:06:49.394Z,29.90
2017-09-29T15:09:17.031Z,29.90
2017-09-29T15:11:45.338Z,30.00
2017-09-29T15:14:12.875Z,29.90
2017-09-29T15:16:41.205Z,29.80
2017-09-29T15:19:08.705Z,29.80
2017-09-29T15:21:37.103Z,29.80
2017-09-29T15:24:04.635Z,29.80
2017-09-29T15:26:32.156Z,29.50
2017-09-29T15:28:59.688Z,29.80
2017-09-29T15:31:27.222Z,29.90
2017-09-29T15:33:55.507Z,30.00
2017-09-29T15:36:23.805Z,29.90
2017-09-29T15:38:51.326Z,29.80
2017-09-29T15:41:18.909Z,29.80
2017-09-29T15:43:47.185Z,29.80
2017-09-29T15:46:15.467Z,29.90
2017-09-29T15:48:43.770Z,29.90
2017-09-29T15:51:11.312Z,29.90
2017-09-29T15:53:38.837Z,29.80
2017-09-29T15:56:06.358Z,29.70
2017-09-29T15:58:34.330Z,29.70
2017-09-29T16:01:01.856Z,29.70
2017-09-29T16:03:29.385Z,29.60
2017-09-29T16:05:56.939Z,29.40
2017-09-29T16:08:24.610Z,29.30
2017-09-29T16:10:52.941Z,29.10
2017-09-29T16:13:20.679Z,29.10
2017-09-29T16:15:48.300Z,29.20
2017-09-29T16:18:16.065Z,29.20
2017-09-29T16:20:43.653Z,29.20
2017-09-29T16:23:11.459Z,29.10
2017-09-29T16:25:39.029Z,29.20
2017-09-29T16:28:06.677Z,29.20
2017-09-29T16:30:34.265Z,29.10
2017-09-29T16:33:01.799Z,28.90
2017-09-29T16:35:29.309Z,28.70
2017-09-29T16:37:56.872Z,28.70
2017-09-29T16:40:25.913Z,28.60
2017-09-29T16:42:53.489Z,28.60
2017-09-29T16:45:21.009Z,28.60
2017-09-29T16:47:48.577Z,28.50
2017-09-29T16:50:16.172Z,28.50
2017-09-29T16:52:43.685Z,28.40
2017-09-29T16:55:11.209Z,28.30
2017-09-29T16:57:38.740Z,28.20
2017-09-29T17:00:06.250Z,28.20
2017-09-29T17:02:34.388Z,28.10
2017-09-29T17:05:01.911Z,28.20
2017-09-29T17:07:29.434Z,28.10
2017-09-29T17:09:56.944Z,28.00
2017-09-29T17:12:24.508Z,27.90
2017-09-29T17:14:52.021Z,27.90
2017-09-29T17:17:20.325Z,27.70
2017-09-29T17:19:47.838Z,27.70
2017-09-29T17:22:15.477Z,27.70
2017-09-29T17:24:43.026Z,27.60
2017-09-29T17:27:10.536Z,27.60
2017-09-29T17:29:38.053Z,27.60
2017-09-29T17:32:05.625Z,27.50
2017-09-29T17:34:33.139Z,27.50
2017-09-29T17:37:00.653Z,27.30
2017-09-29T17:39:28.183Z,27.30
2017-09-29T17:41:55.820Z,27.10
2017-09-29T17:44:23.340Z,27.10
2017-09-29T17:46:50.886Z,27.10
2017-09-29T17:49:18.417Z,27.10
2017-09-29T17:51:45.974Z,27.00
2017-09-29T17:54:13.493Z,26.90
2017-09-29T17:56:43.854Z,26.80
2017-09-29T17:59:11.387Z,26.80
2017-09-29T18:01:38.908Z,26.70
2017-09-29T18:04:06.497Z,26.70
2017-09-29T18:06:34.505Z,26.60
2017-09-29T18:09:02.040Z,26.60
2017-09-29T18:11:30.345Z,26.50
2017-09-29T18:13:57.870Z,26.50
2017-09-29T18:16:26.231Z,26.50
2017-09-29T18:18:53.773Z,26.40
2017-09-29T18:21:21.287Z,26.40
2017-09-29T18:23:48.835Z,26.30
2017-09-29T18:26:17.120Z,26.10
2017-09-29T18:28:44.677Z,26.10
2017-09-29T18:31:12.205Z,25.90
2017-09-29T18:33:39.727Z,25.90
2017-09-29T18:36:07.248Z,26.00
2017-09-29T18:38:35.555Z,26.00
2017-09-29T18:41:08.656Z,26.00
2017-09-29T18:43:37.085Z,25.90
2017-09-29T18:49:02.229Z,25.50
2017-09-29T18:51:29.774Z,25.50
2017-09-29T18:53:58.069Z,25.70
2017-09-29T18:56:25.573Z,25.60
2017-09-29T18:58:53.133Z,25.80
2017-09-29T19:01:20.625Z,26.00
2017-09-29T19:03:48.905Z,25.90
2017-09-29T19:06:17.186Z,25.80
2017-09-29T19:08:47.812Z,25.70
2017-09-29T19:11:16.152Z,25.70
2017-09-29T19:13:43.742Z,25.70
2017-09-29T19:16:11.476Z,25.50
2017-09-29T19:18:40.631Z,25.60
2017-09-29T19:21:09.037Z,25.50
2017-09-29T19:23:36.660Z,25.70
2017-09-29T19:26:05.039Z,25.40
2017-09-29T19:28:33.432Z,25.50
2017-09-29T19:31:01.979Z,25.40
2017-09-29T19:33:30.340Z,25.70
2017-09-29T19:35:57.907Z,25.70
2017-09-29T19:38:25.505Z,25.60
2017-09-29T19:40:53.960Z,25.30
2017-09-29T19:43:23.427Z,25.30
2017-09-29T19:45:51.013Z,25.20
2017-09-29T19:48:18.671Z,25.00
2017-09-29T19:50:46.173Z,24.90
2017-09-29T19:53:14.467Z,24.80
2017-09-29T19:55:42.045Z,24.80
2017-09-29T19:58:09.590Z,25.10
2017-09-29T20:00:37.521Z,25.00
2017-09-29T20:03:05.095Z,25.10
2017-09-29T20:05:33.409Z,25.10
2017-09-29T20:08:01.079Z,25.10
2017-09-29T20:10:28.638Z,25.20
2017-09-29T20:12:56.244Z,25.20
2017-09-29T20:15:24.581Z,25.20
2017-09-29T20:17:52.100Z,25.20
2017-09-29T20:20:20.465Z,24.80
2017-09-29T20:22:48.786Z,25.00
2017-09-29T20:25:16.344Z,25.00
2017-09-29T20:27:43.840Z,25.00
2017-09-29T20:30:11.411Z,25.00
2017-09-29T20:32:38.910Z,24.70
2017-09-29T20:35:06.456Z,24.90
2017-09-29T20:37:34.745Z,24.70
2017-09-29T20:40:02.300Z,24.70
2017-09-29T20:42:29.852Z,24.60
2017-09-29T20:44:58.132Z,24.70
2017-09-29T20:47:26.429Z,24.70
2017-09-29T20:49:53.971Z,24.70
2017-09-29T20:52:22.254Z,24.40
2017-09-29T20:54:49.786Z,24.40
2017-09-29T20:57:17.361Z,24.50
2017-09-29T20:59:45.662Z,24.60
2017-09-29T21:02:13.211Z,24.60
2017-09-29T21:04:40.780Z,24.30
2017-09-29T21:07:08.285Z,24.20
2017-09-29T21:09:35.816Z,24.20
2017-09-29T21:12:03.333Z,24.10
2017-09-29T21:14:31.634Z,24.20
2017-09-29T21:16:59.146Z,24.20
2017-09-29T21:19:27.487Z,24.10
2017-09-29T21:21:55.005Z,24.10
2017-09-29T21:24:23.318Z,24.20
2017-09-29T21:26:51.605Z,24.10
2017-09-29T21:29:19.139Z,24.10
2017-09-29T21:31:47.445Z,23.80
2017-09-29T21:34:14.974Z,23.80
2017-09-29T21:36:43.279Z,23.90
2017-09-29T21:39:10.845Z,23.90
2017-09-29T21:41:38.374Z,24.20
2017-09-29T21:44:05.915Z,24.20
2017-09-29T21:46:35.129Z,24.10
2017-09-29T21:49:02.670Z,24.10
2017-09-29T21:51:30.250Z,24.30
2017-09-29T21:53:57.768Z,24.10
2017-09-29T21:56:25.298Z,24.20
2017-09-29T21:58:52.832Z,24.50
2017-09-29T22:01:20.348Z,24.50
2017-09-29T22:03:47.861Z,24.40
2017-09-29T22:06:15.393Z,24.50
2017-09-29T22:08:43.669Z,24.40
2017-09-29T22:11:11.949Z,24.20
2017-09-29T22:13:40.226Z,24.30
2017-09-29T22:16:08.532Z,24.40
2017-09-29T22:18:36.056Z,24.30
2017-09-29T22:21:04.369Z,24.20
2017-09-29T22:23:31.904Z,24.20
2017-09-29T22:26:00.206Z,24.10
2017-09-29T22:28:27.719Z,24.10
2017-09-29T22:30:55.265Z,24.30
2017-09-29T22:33:23.557Z,24.50
2017-09-29T22:35:51.107Z,24.50
2017-09-29T22:38:18.619Z,24.40
2017-09-29T22:40:46.164Z,24.50
2017-09-29T22:43:13.723Z,24.50
2017-09-29T22:45:41.285Z,24.40
2017-09-29T22:48:08.821Z,24.50
2017-09-29T22:50:37.106Z,24.80
2017-09-29T22:53:04.648Z,24.80
2017-09-29T22:55:32.180Z,24.90
2017-09-29T22:57:59.684Z,24.70
2017-09-29T23:00:27.961Z,24.50
2017-09-29T23:02:56.240Z,24.70
2017-09-29T23:05:24.548Z,24.70
2017-09-29T23:07:52.080Z,24.60
2017-09-29T23:10:20.356Z,24.60
2017-09-29T23:12:48.629Z,24.50
2017-09-29T23:15:16.920Z,24.70
2017-09-29T23:17:45.224Z,24.80
2017-09-29T23:20:12.753Z,24.80
2017-09-29T23:22:41.004Z,24.90
2017-09-29T23:25:08.567Z,24.80
2017-09-29T23:27:36.117Z,24.90
2017-09-29T23:30:03.641Z,25.10
2017-09-29T23:32:31.171Z,25.20
2017-09-29T23:34:58.689Z,25.20
2017-09-29T23:37:26.232Z,25.20
2017-09-29T23:39:53.758Z,25.20
2017-09-29T23:42:21.322Z,25.20
2017-09-29T23:44:48.829Z,25.20
2017-09-29T23:47:16.353Z,25.10
2017-09-29T23:49:43.893Z,25.20
2017-09-29T23:52:11.984Z,25.10
2017-09-29T23:54:40.304Z,24.90
2017-09-29T23:57:08.605Z,24.90
2017-09-29T23:59:36.875Z,24.90
